M I D A S
Marine Information and Data Acquisition System
Tripno 933 of the Zeeleeuw from 2005-08-23 06:48:49 to 2005-08-23 13:22:24
Back to CruiseResearch ActivitiesStationsMapUnderway DataData graphs

EquipmentUnitsComment
TimeDGPSUTC
LatitudeDGPSDM.mWGS84
LongitudeDGPSDM.mWGS84
HeadingGyrodeg 
SOGDGPSknotsSpeed over ground
COGDGPSdegCourse over ground
DepthEcho soundermeters200 kHz
Missing or incorrect values are displayed as -999
Navigation data collected by the RV Zeeleeuw from 2005-08-23 06:32:17 to 2005-08-23 13:21:20
                                                                                    Next 1000 lines
Time Latitude Longitude Heading SOG COG Depth
2005-08-23 06:32:28 51°13.598 2°56.089 110.9 0.8 285 7.3
2005-08-23 06:32:32 51°13.598 2°56.087 110.6 1.3 285 5.6
2005-08-23 06:32:37 51°13.599 2°56.082 110.6 1.7 288 7.9
2005-08-23 06:32:43 51°13.601 2°56.075 111 1.7 288 -999
2005-08-23 06:32:48 51°13.602 2°56.069 111.7 2.8 291 -999
2005-08-23 06:32:53 51°13.604 2°56.061 112.3 3.5 291 -999
2005-08-23 06:32:59 51°13.606 2°56.052 112.6 3.7 290 -999
2005-08-23 06:33:03 51°13.608 2°56.045 112.6 3.7 290 -999
2005-08-23 06:33:08 51°13.61 2°56.037 112.9 3.9 292 -999
2005-08-23 06:33:13 51°13.612 2°56.029 113.3 4.1 291 -999
2005-08-23 06:33:18 51°13.614 2°56.02 113.9 4.1 291 -999
2005-08-23 06:33:23 51°13.616 2°56.011 114.3 4.1 291 -999
2005-08-23 06:33:29 51°13.619 2°56.001 115.2 4.3 293 -999
2005-08-23 06:33:34 51°13.621 2°55.993 116.5 4.3 293 -999
2005-08-23 06:33:39 51°13.623 2°55.984 118.2 4.3 293 -999
2005-08-23 06:33:43 51°13.626 2°55.976 120.2 4.4 293 -999
2005-08-23 06:33:48 51°13.629 2°55.967 123.3 4.4 296 -999
2005-08-23 06:33:53 51°13.631 2°55.958 125.2 4.4 296 -999
2005-08-23 06:33:59 51°13.635 2°55.948 127.2 4.4 296 -999
2005-08-23 06:34:03 51°13.638 2°55.94 128.8 4.4 296 -999
2005-08-23 06:34:08 51°13.642 2°55.932 130.1 4.7 303 -999
2005-08-23 06:34:13 51°13.646 2°55.923 131.4 4.8 306 -999
2005-08-23 06:34:19 51°13.651 2°55.914 132.8 5 308 -999
2005-08-23 06:34:23 51°13.655 2°55.906 133.8 5.1 309 -999
2005-08-23 06:34:28 51°13.661 2°55.897 134.5 5.1 309 -999
2005-08-23 06:34:33 51°13.666 2°55.887 135 5.1 309 -999
2005-08-23 06:34:39 51°13.672 2°55.877 135 5.6 311 -999
2005-08-23 06:34:43 51°13.676 2°55.868 134.2 5.9 311 -999
2005-08-23 06:34:48 51°13.682 2°55.858 133.3 5.9 311 -999
2005-08-23 06:34:53 51°13.686 2°55.848 132.3 5.6 308 -999
2005-08-23 06:34:59 51°13.691 2°55.838 130.9 5.6 308 -999
2005-08-23 06:35:03 51°13.695 2°55.829 129.5 5.2 306 -999
2005-08-23 06:35:08 51°13.698 2°55.82 127.7 5.1 304 -999
2005-08-23 06:35:13 51°13.702 2°55.811 125.8 5.1 304 -999
2005-08-23 06:35:19 51°13.706 2°55.801 123.7 4.8 301 -999
2005-08-23 06:35:24 51°13.708 2°55.792 121.9 4.7 299 -999
2005-08-23 06:35:28 51°13.711 2°55.784 120.4 4.7 299 -999
2005-08-23 06:35:33 51°13.713 2°55.775 119.3 4.7 299 -999
2005-08-23 06:35:38 51°13.716 2°55.766 118.3 4.7 299 -999
2005-08-23 06:35:43 51°13.718 2°55.757 117.2 4.7 299 -999
2005-08-23 06:35:48 51°13.72 2°55.749 116.6 4.1 294 -999
2005-08-23 06:35:53 51°13.722 2°55.743 116.5 3.6 293 -999
2005-08-23 06:35:59 51°13.723 2°55.74 115.4 2 293 -999
2005-08-23 06:36:03 51°13.723 2°55.739 112.5 1 296 -999
2005-08-23 06:36:09 51°13.723 2°55.742 106.4 1 296 -999
2005-08-23 06:36:14 51°13.723 2°55.746 98.2 1 296 12
2005-08-23 06:36:19 51°13.724 2°55.751 88.1 2.1 82 -999
2005-08-23 06:36:23 51°13.725 2°55.754 79.3 1.9 68 -999
2005-08-23 06:36:28 51°13.726 2°55.757 74.7 1.3 74 12.5
2005-08-23 06:36:32 51°13.726 2°55.757 71.8 1.3 74 12.1
2005-08-23 06:36:38 51°13.725 2°55.756 68.8 0.4 226 12.2
2005-08-23 06:36:43 51°13.725 2°55.754 66 0.8 227 12.3
2005-08-23 06:36:47 51°13.723 2°55.751 64.5 1.8 236 12.6
2005-08-23 06:36:53 51°13.721 2°55.745 64.4 1.8 236 -999
2005-08-23 06:36:59 51°13.719 2°55.739 65 1.8 236 -999
2005-08-23 06:37:03 51°13.717 2°55.734 66.1 3 242 -999
2005-08-23 06:37:08 51°13.715 2°55.728 67 3.1 242 -999
2005-08-23 06:37:14 51°13.713 2°55.722 67.2 3.1 242 -999
2005-08-23 06:37:18 51°13.712 2°55.719 67.5 2.6 243 -999
2005-08-23 06:37:23 51°13.711 2°55.717 67.2 1.6 232 -999
2005-08-23 06:37:28 51°13.711 2°55.716 63.6 1.3 231 -999
2005-08-23 06:37:33 51°13.71 2°55.716 60.9 1.3 231 -999
2005-08-23 06:37:39 51°13.711 2°55.717 56.7 1.3 231 -999
2005-08-23 06:37:43 51°13.712 2°55.718 52.2 0.5 44 -999
2005-08-23 06:37:48 51°13.714 2°55.72 45.4 1.2 45 11.8
2005-08-23 06:37:53 51°13.716 2°55.722 39.5 1.9 33 11.3
2005-08-23 06:37:59 51°13.72 2°55.725 33.1 2.4 24 -999
2005-08-23 06:38:03 51°13.724 2°55.726 25.1 2.4 24 4.9
2005-08-23 06:38:07 51°13.727 2°55.727 17.4 3 8 4.9
2005-08-23 06:38:13 51°13.733 2°55.727 11.5 3 8 10.5
2005-08-23 06:38:18 51°13.738 2°55.725 4.2 3.4 354 10.1
2005-08-23 06:38:23 51°13.743 2°55.722 356.5 3.8 348 9.7
2005-08-23 06:38:28 51°13.748 2°55.717 347.1 3.8 348 9.5
2005-08-23 06:38:33 51°13.753 2°55.713 337.6 4.1 329 9.5
2005-08-23 06:38:38 51°13.758 2°55.707 332.4 4.1 328 9.6
2005-08-23 06:38:43 51°13.762 2°55.702 329.5 4.2 324 9.6
2005-08-23 06:38:47 51°13.767 2°55.697 328.2 4.4 324 9.5
2005-08-23 06:38:53 51°13.773 2°55.69 328.1 4.6 324 9.5
2005-08-23 06:38:57 51°13.777 2°55.686 328.7 4.7 326 9.5
2005-08-23 06:39:03 51°13.783 2°55.678 328.9 4.7 326 10
2005-08-23 06:39:07 51°13.789 2°55.672 329.5 4.9 325 9.9
2005-08-23 06:39:12 51°13.794 2°55.667 329.8 5.1 326 10
2005-08-23 06:39:18 51°13.801 2°55.659 330.2 5.2 326 10.3
2005-08-23 06:39:23 51°13.807 2°55.653 330.7 5.4 327 10.7
2005-08-23 06:39:28 51°13.815 2°55.645 331.2 5.4 327 10.5
2005-08-23 06:39:32 51°13.821 2°55.64 332.6 5.9 329 10.8
2005-08-23 06:39:37 51°13.83 2°55.632 335.1 5.9 329 10.7
2005-08-23 06:39:42 51°13.839 2°55.625 336.8 6.8 334 10.7
2005-08-23 06:39:47 51°13.847 2°55.619 337.4 7.4 334 10.6
2005-08-23 06:39:52 51°13.858 2°55.611 338.2 7.6 334 10.7
2005-08-23 06:39:55 51°13.864 2°55.606 339 8 335 10.4
2005-08-23 06:40:03 51°13.879 2°55.594 339.3 8 335 10.1
2005-08-23 06:40:08 51°13.891 2°55.585 339.3 8 335 10
2005-08-23 06:40:11 51°13.898 2°55.581 339.4 8 335 10
2005-08-23 06:40:18 51°13.913 2°55.569 339.7 8 335 10
2005-08-23 06:40:23 51°13.923 2°55.561 339.7 8 335 10.3
2005-08-23 06:40:27 51°13.932 2°55.555 339.7 9 335 10.4
2005-08-23 06:40:33 51°13.947 2°55.545 339.7 9 335 10.4
2005-08-23 06:40:38 51°13.958 2°55.536 340.4 9 335 10.4
2005-08-23 06:40:43 51°13.97 2°55.528 340.5 9.3 336 10.3
2005-08-23 06:40:47 51°13.98 2°55.521 340.2 9.3 336 10.3
2005-08-23 06:40:52 51°13.992 2°55.512 340 9.3 336 10.3
2005-08-23 06:40:58 51°14.006 2°55.502 340.4 9.3 336 10.3
2005-08-23 06:41:03 51°14.018 2°55.494 340.4 9.4 336 10.2
2005-08-23 06:41:08 51°14.031 2°55.484 339.9 9.4 335 10.1
2005-08-23 06:41:13 51°14.042 2°55.476 339.8 9.4 335 9.9
2005-08-23 06:41:18 51°14.054 2°55.469 340.8 9.4 338 9.9
2005-08-23 06:41:23 51°14.066 2°55.46 341.7 9.4 338 10
2005-08-23 06:41:27 51°14.076 2°55.454 341.7 9.4 338 9.9
2005-08-23 06:41:32 51°14.089 2°55.445 341.4 9.4 337 9.9
2005-08-23 06:41:37 51°14.101 2°55.436 341.2 9.5 337 9.8
2005-08-23 06:41:42 51°14.113 2°55.428 341.1 9.6 336 9.9
2005-08-23 06:41:47 51°14.126 2°55.418 340.8 9.8 336 10
2005-08-23 06:41:53 51°14.14 2°55.407 339.9 9.9 334 10
2005-08-23 06:41:57 51°14.151 2°55.398 338.4 9.9 334 10
2005-08-23 06:42:02 51°14.163 2°55.387 336.4 10.1 330 10
2005-08-23 06:42:07 51°14.175 2°55.374 333.6 10.1 328 10.5
2005-08-23 06:42:11 51°14.184 2°55.365 332 10.1 327 10
2005-08-23 06:42:18 51°14.199 2°55.347 330.7 10.2 325 10
2005-08-23 06:42:23 51°14.21 2°55.334 329.4 10.2 324 10
2005-08-23 06:42:27 51°14.219 2°55.322 327.6 10.2 323 9.9
2005-08-23 06:42:33 51°14.234 2°55.303 326.1 10.2 323 10
2005-08-23 06:42:35 51°14.236 2°55.299 324.3 10.3 317 10
2005-08-23 06:42:42 51°14.252 2°55.274 321.4 10.3 317 10
2005-08-23 06:42:48 51°14.263 2°55.254 318.6 10.4 313 10
2005-08-23 06:42:52 51°14.271 2°55.24 317.6 10.4 313 10
2005-08-23 06:42:58 51°14.282 2°55.218 315.4 10.4 311 10
2005-08-23 06:43:03 51°14.29 2°55.201 313.2 10.6 308 10
2005-08-23 06:43:07 51°14.298 2°55.184 312.3 10.8 308 10.1
2005-08-23 06:43:12 51°14.307 2°55.164 312.1 10.9 308 10.1
2005-08-23 06:43:18 51°14.318 2°55.143 312.4 11.2 308 10.2
2005-08-23 06:43:23 51°14.327 2°55.124 312.4 11.2 308 10.2
2005-08-23 06:43:27 51°14.336 2°55.106 312.8 11.2 308 10.3
2005-08-23 06:43:33 51°14.348 2°55.084 314 11.3 309 10.4
2005-08-23 06:43:38 51°14.359 2°55.064 315 11.3 309 10.4
2005-08-23 06:43:43 51°14.37 2°55.047 317 11.3 309 10.3
2005-08-23 06:43:47 51°14.38 2°55.031 319.1 11.7 316 10.6
2005-08-23 06:43:51 51°14.39 2°55.017 321.5 11.7 317 10.5
2005-08-23 06:43:55 51°14.399 2°55.002 323.4 11.8 317 10.6
2005-08-23 06:44:03 51°14.417 2°54.975 325.1 12 317 10.6
2005-08-23 06:44:07 51°14.428 2°54.958 325.1 12.1 315 10.5
2005-08-23 06:44:12 51°14.441 2°54.941 326.2 12.2 317 10.5
2005-08-23 06:44:18 51°14.456 2°54.922 329.6 12.1 319 10.5
2005-08-23 06:44:23 51°14.469 2°54.906 331.5 12.3 322 10.5
2005-08-23 06:44:28 51°14.483 2°54.888 332.4 12.4 322 10.2
2005-08-23 06:44:32 51°14.496 2°54.873 332.5 12.5 322 10
2005-08-23 06:44:36 51°14.507 2°54.86 333 12.5 323 10.1
2005-08-23 06:44:43 51°14.525 2°54.839 333.5 12.5 323 9.9
2005-08-23 06:44:48 51°14.54 2°54.822 333.6 12.7 325 9.9
2005-08-23 06:44:52 51°14.553 2°54.809 334.5 12.7 325 9.9
2005-08-23 06:44:57 51°14.568 2°54.793 335.3 12.7 325 9.8
2005-08-23 06:45:03 51°14.583 2°54.777 335.7 12.7 326 9.9
2005-08-23 06:45:07 51°14.598 2°54.763 336.5 12.7 328 9.8
2005-08-23 06:45:12 51°14.613 2°54.748 337.5 12.8 329 9.6
2005-08-23 06:45:17 51°14.628 2°54.735 338.2 12.8 328 9.8
2005-08-23 06:45:23 51°14.645 2°54.719 338.3 12.8 329 9.6
2005-08-23 06:45:27 51°14.657 2°54.706 338.1 12.7 328 9.7
2005-08-23 06:45:33 51°14.675 2°54.688 337.2 12.8 328 9.7
2005-08-23 06:45:38 51°14.69 2°54.673 336.6 12.9 328 9.6
2005-08-23 06:45:43 51°14.705 2°54.658 336.1 12.9 327 9.6
2005-08-23 06:45:48 51°14.72 2°54.643 336 12.9 327 9.7
2005-08-23 06:45:53 51°14.735 2°54.627 335.7 12.9 327 9.6
2005-08-23 06:45:58 51°14.752 2°54.61 335.8 12.9 327 9.5
2005-08-23 06:46:03 51°14.765 2°54.596 335.7 12.9 327 9.4
2005-08-23 06:46:07 51°14.779 2°54.582 335.3 13 327 9.4
2005-08-23 06:46:13 51°14.796 2°54.565 335.4 12.9 328 9.4
2005-08-23 06:46:17 51°14.809 2°54.552 335.6 12.9 328 9.4
2005-08-23 06:46:23 51°14.825 2°54.535 335.9 12.9 328 9.2
2005-08-23 06:46:27 51°14.838 2°54.522 335.9 12.9 328 9.2
2005-08-23 06:46:33 51°14.856 2°54.505 335.9 12.9 328 9.1
2005-08-23 06:46:37 51°14.87 2°54.492 336.1 12.9 328 9.1
2005-08-23 06:46:43 51°14.887 2°54.476 336.3 -999 -999 9
2005-08-23 06:46:47 51°14.899 2°54.464 336.4 -999 -999 9.2
2005-08-23 06:46:51 51°14.911 2°54.453 336.5 12.7 329 9.1
2005-08-23 06:46:58 51°14.933 2°54.43 336.4 12.7 329 9
2005-08-23 06:47:03 51°14.946 2°54.417 335.8 12.8 327 9.1
2005-08-23 06:47:08 51°14.962 2°54.401 335.3 12.8 327 8.9
2005-08-23 06:47:11 51°14.972 2°54.391 335.3 12.8 328 8.8
2005-08-23 06:47:17 51°14.991 2°54.373 335.4 12.8 328 8.7
2005-08-23 06:47:22 51°15.006 2°54.358 336 12.8 328 8.6
2005-08-23 06:47:27 51°15.021 2°54.343 336.1 12.9 328 8.6
2005-08-23 06:47:33 51°15.039 2°54.325 336.3 12.9 328 8.6
2005-08-23 06:47:36 51°15.048 2°54.316 336.1 12.9 328 8.6
2005-08-23 06:47:43 51°15.068 2°54.296 335.8 12.9 327 8.6
2005-08-23 06:47:48 51°15.084 2°54.281 335.4 12.9 327 8.7
2005-08-23 06:47:53 51°15.099 2°54.266 335.6 12.9 328 8.7
2005-08-23 06:47:58 51°15.114 2°54.252 335.9 12.9 328 8.7
2005-08-23 06:48:03 51°15.13 2°54.237 336 12.9 328 8.8
2005-08-23 06:48:07 51°15.144 2°54.225 336.7 12.9 330 8.8
2005-08-23 06:48:11 51°15.154 2°54.215 336.9 12.9 330 8.9
2005-08-23 06:48:15 51°15.167 2°54.202 336.9 12.9 329 8.9
2005-08-23 06:48:23 51°15.191 2°54.178 336.4 12.9 329 9
2005-08-23 06:48:27 51°15.205 2°54.164 335.7 13 328 9
2005-08-23 06:48:32 51°15.22 2°54.149 335.7 13 328 8.9
2005-08-23 06:48:37 51°15.236 2°54.134 335.8 13 328 9.2
2005-08-23 06:48:43 51°15.252 2°54.118 336 13 328 9.2
2005-08-23 06:48:47 51°15.265 2°54.106 336 13.1 328 9.3
2005-08-23 06:48:51 51°15.279 2°54.092 335.7 13.1 328 9.3
2005-08-23 06:48:58 51°15.299 2°54.071 335.5 13.1 328 9.4
2005-08-23 06:49:03 51°15.316 2°54.054 335.4 13.1 328 9.5
2005-08-23 06:49:07 51°15.328 2°54.042 335.6 13.1 327 9.5
2005-08-23 06:49:12 51°15.343 2°54.026 335.5 13.1 327 9.6
2005-08-23 06:49:17 51°15.359 2°54.01 335.4 13 327 9.6
2005-08-23 06:49:23 51°15.375 2°53.994 335.5 13 327 9.7
2005-08-23 06:49:27 51°15.387 2°53.981 335.7 13 327 9.7
2005-08-23 06:49:32 51°15.404 2°53.964 335.5 13 327 9.8
2005-08-23 06:49:37 51°15.419 2°53.947 335.4 13.1 327 10
2005-08-23 06:49:43 51°15.435 2°53.929 335.3 13.1 327 9.9
2005-08-23 06:49:47 51°15.448 2°53.915 335.2 12.9 326 10.1
2005-08-23 06:49:53 51°15.465 2°53.897 334.9 12.9 326 10.1
2005-08-23 06:49:58 51°15.48 2°53.882 335.3 12.9 326 10.1
2005-08-23 06:50:03 51°15.495 2°53.866 335.6 13 327 10.3
2005-08-23 06:50:07 51°15.507 2°53.854 336.4 13 328 10.3
2005-08-23 06:50:12 51°15.524 2°53.837 336.2 13 327 10.3
2005-08-23 06:50:18 51°15.542 2°53.818 336.5 13 328 10.3
2005-08-23 06:50:23 51°15.556 2°53.804 336.2 13 327 10.4
2005-08-23 06:50:27 51°15.57 2°53.789 336 13 327 10.5
2005-08-23 06:50:33 51°15.586 2°53.772 335.8 13 327 10.6
2005-08-23 06:50:36 51°15.596 2°53.761 335.8 12.9 327 10.7
2005-08-23 06:50:43 51°15.616 2°53.74 335.6 13 326 10.6
2005-08-23 06:50:48 51°15.63 2°53.726 335.9 12.9 328 10.9
2005-08-23 06:50:52 51°15.644 2°53.711 336.3 12.9 328 10.9
2005-08-23 06:50:57 51°15.658 2°53.697 336 12.9 328 10.8
2005-08-23 06:51:03 51°15.675 2°53.679 335.9 12.9 327 11
2005-08-23 06:51:07 51°15.689 2°53.665 336.1 12.9 328 10.9
2005-08-23 06:51:11 51°15.701 2°53.652 336.2 12.9 327 11.1
2005-08-23 06:51:18 51°15.721 2°53.633 336.2 12.9 327 10.9
2005-08-23 06:51:23 51°15.736 2°53.617 336.3 12.9 327 11
2005-08-23 06:51:27 51°15.748 2°53.605 336.1 12.9 327 11.1
2005-08-23 06:51:33 51°15.766 2°53.586 336.2 12.9 327 11
2005-08-23 06:51:37 51°15.779 2°53.572 336.1 12.9 327 11.2
2005-08-23 06:51:43 51°15.796 2°53.555 336 12.9 327 11.2
2005-08-23 06:51:47 51°15.807 2°53.543 336.1 12.9 327 11.2
2005-08-23 06:51:53 51°15.826 2°53.524 336 12.9 327 11.3
2005-08-23 06:51:57 51°15.84 2°53.51 336.2 12.9 327 11.2
2005-08-23 06:52:03 51°15.856 2°53.494 336.3 -999 -999 11.4
2005-08-23 06:52:07 51°15.87 2°53.48 336.7 13 328 11.4
2005-08-23 06:52:12 51°15.885 2°53.464 336.5 13 328 11.4
2005-08-23 06:52:15 51°15.895 2°53.455 336.5 12.9 327 11.3
2005-08-23 06:52:23 51°15.917 2°53.432 336.1 12.9 327 11.5
2005-08-23 06:52:27 51°15.929 2°53.419 335.9 12.9 327 11.5
2005-08-23 06:52:32 51°15.946 2°53.403 336 12.9 327 11.6
2005-08-23 06:52:38 51°15.962 2°53.385 336.4 12.9 327 11.6
2005-08-23 06:52:42 51°15.976 2°53.371 336.1 13 327 11.5
2005-08-23 06:52:47 51°15.99 2°53.357 336 13 327 11.7
2005-08-23 06:52:52 51°16.006 2°53.341 336 12.9 327 11.8
2005-08-23 06:52:57 51°16.019 2°53.328 336 12.9 327 11.6
2005-08-23 06:53:03 51°16.037 2°53.31 336.1 12.8 328 11.9
2005-08-23 06:53:07 51°16.051 2°53.296 336.5 12.7 328 11.8
2005-08-23 06:53:11 51°16.063 2°53.284 336.7 12.8 328 11.9
2005-08-23 06:53:18 51°16.082 2°53.264 336.7 12.9 328 11.8
2005-08-23 06:53:23 51°16.098 2°53.248 336.5 12.9 327 11.8
2005-08-23 06:53:27 51°16.11 2°53.236 336 12.9 327 11.9
2005-08-23 06:53:32 51°16.127 2°53.22 336.3 12.9 328 11.8
2005-08-23 06:53:37 51°16.142 2°53.204 336.6 12.9 328 12
2005-08-23 06:53:43 51°16.158 2°53.188 336.5 13 328 11.9
2005-08-23 06:53:47 51°16.171 2°53.175 336.4 13 328 12
2005-08-23 06:53:53 51°16.189 2°53.157 336.4 13 328 12
2005-08-23 06:53:57 51°16.203 2°53.143 336.6 13 328 11.9
2005-08-23 06:54:03 51°16.22 2°53.127 336.8 13 328 12
2005-08-23 06:54:08 51°16.235 2°53.113 337.5 13 329 12
2005-08-23 06:54:12 51°16.249 2°53.1 337.7 13 329 12.1
2005-08-23 06:54:17 51°16.265 2°53.085 338 13 329 12.1
2005-08-23 06:54:23 51°16.281 2°53.07 338.4 13.1 330 12.2
2005-08-23 06:54:28 51°16.298 2°53.055 338.2 13 330 12
2005-08-23 06:54:33 51°16.313 2°53.041 338.3 13 330 12.2
2005-08-23 06:54:38 51°16.328 2°53.027 338.4 13 330 12.1
2005-08-23 06:54:43 51°16.343 2°53.013 338.6 13 330 12.2
2005-08-23 06:54:47 51°16.356 2°53.002 338.9 13 331 12.1
2005-08-23 06:54:52 51°16.373 2°52.986 338.7 13 331 12.1
2005-08-23 06:54:57 51°16.388 2°52.972 338.2 13 331 12.1
2005-08-23 06:55:03 51°16.406 2°52.956 338.2 13 331 12.1
2005-08-23 06:55:08 51°16.421 2°52.941 338.2 13 331 12.1
2005-08-23 06:55:11 51°16.432 2°52.931 338.2 13 331 11.8
2005-08-23 06:55:17 51°16.45 2°52.914 338.2 -999 -999 11.9
2005-08-23 06:55:23 51°16.467 2°52.897 337.7 -999 -999 11.8
2005-08-23 06:55:27 51°16.48 2°52.885 337.6 12.9 329 11.9
2005-08-23 06:55:33 51°16.498 2°52.868 337.6 12.9 329 11.8
2005-08-23 06:55:38 51°16.514 2°52.853 337.7 12.9 329 11.6
2005-08-23 06:55:43 51°16.529 2°52.838 338 12.9 329 11.7
2005-08-23 06:55:47 51°16.541 2°52.827 338 12.9 329 11.5
2005-08-23 06:55:51 51°16.554 2°52.815 338.2 13 330 11.6
2005-08-23 06:55:58 51°16.578 2°52.796 339 13 330 11.5
2005-08-23 06:56:03 51°16.592 2°52.784 340 13 333 11.4
2005-08-23 06:56:08 51°16.61 2°52.77 341.1 13 334 11.4
2005-08-23 06:56:13 51°16.625 2°52.758 341.7 12.9 333 11.3
2005-08-23 06:56:16 51°16.636 2°52.749 341.8 13 334 11.1
2005-08-23 06:56:23 51°16.656 2°52.732 341.8 13 334 11
2005-08-23 06:56:27 51°16.669 2°52.721 341.5 13 334 10.9
2005-08-23 06:56:33 51°16.689 2°52.704 340.9 13 334 10.6
2005-08-23 06:56:38 51°16.703 2°52.692 340.8 13 334 10.8
2005-08-23 06:56:43 51°16.72 2°52.678 340.7 12.8 331 10.3
2005-08-23 06:56:47 51°16.732 2°52.667 340.4 12.9 332 10.2
2005-08-23 06:56:52 51°16.75 2°52.653 340.9 12.9 332 9.8
2005-08-23 06:56:57 51°16.765 2°52.64 341.3 12.9 332 9.7
2005-08-23 06:57:03 51°16.783 2°52.626 341.5 12.9 332 9.8
2005-08-23 06:57:07 51°16.796 2°52.615 341.7 12.8 334 10
2005-08-23 06:57:12 51°16.814 2°52.603 342 12.9 334 9.9
2005-08-23 06:57:17 51°16.83 2°52.591 342.6 12.9 335 9.8
2005-08-23 06:57:23 51°16.848 2°52.579 344 12.9 335 9.8
2005-08-23 06:57:27 51°16.863 2°52.569 344.7 12.9 338 9.8
2005-08-23 06:57:32 51°16.879 2°52.559 345.8 12.8 338 10
2005-08-23 06:57:37 51°16.896 2°52.549 346.6 12.8 339 9.9
2005-08-23 06:57:43 51°16.915 2°52.537 346.6 12.9 339 10
2005-08-23 06:57:48 51°16.932 2°52.526 346.8 12.9 339 10.1
2005-08-23 06:57:53 51°16.95 2°52.515 346.8 12.9 339 9.7
2005-08-23 06:57:58 51°16.965 2°52.505 346.7 13 338 9.7
2005-08-23 06:58:03 51°16.983 2°52.494 346.5 12.9 338 9.7
2005-08-23 06:58:07 51°16.997 2°52.485 346.3 12.8 338 9.5
2005-08-23 06:58:13 51°17.015 2°52.474 346.4 12.8 338 9.6
2005-08-23 06:58:18 51°17.033 2°52.462 346.5 12.8 338 9.6
2005-08-23 06:58:23 51°17.047 2°52.453 346.3 12.9 338 9.8
2005-08-23 06:58:28 51°17.065 2°52.442 346.4 12.9 338 9.7
2005-08-23 06:58:32 51°17.079 2°52.433 346.4 12.8 338 9.8
2005-08-23 06:58:38 51°17.098 2°52.421 346.4 12.8 339 9.8
2005-08-23 06:58:43 51°17.115 2°52.411 346.9 12.8 339 9.8
2005-08-23 06:58:48 51°17.131 2°52.401 347.1 12.9 338 9.9
2005-08-23 06:58:53 51°17.148 2°52.39 347 12.9 338 10
2005-08-23 06:58:56 51°17.16 2°52.382 346.7 12.9 338 9.9
2005-08-23 06:59:02 51°17.18 2°52.37 346.6 12.9 340 10.1
2005-08-23 06:59:07 51°17.197 2°52.362 347.6 12.8 342 10.2
2005-08-23 06:59:12 51°17.214 2°52.357 352 12.8 346 10.2
2005-08-23 06:59:18 51°17.234 2°52.352 356.2 12.8 346 10.2
2005-08-23 06:59:23 51°17.251 2°52.349 358.9 12.7 353 10.3
2005-08-23 06:59:27 51°17.264 2°52.347 1.2 12.6 354 10.3
2005-08-23 06:59:31 51°17.278 2°52.346 3.1 12.6 354 10.4
2005-08-23 06:59:36 51°17.298 2°52.344 4.3 12.7 357 10.4
2005-08-23 06:59:43 51°17.32 2°52.343 4.8 12.6 357 10.3
2005-08-23 06:59:47 51°17.336 2°52.342 5.6 12.5 358 10.4
2005-08-23 06:59:51 51°17.35 2°52.341 6.3 12.5 358 10.3
2005-08-23 06:59:58 51°17.374 2°52.339 6.1 12.5 358 10.4
2005-08-23 07:00:03 51°17.389 2°52.339 6.2 12.5 357 10.3
2005-08-23 07:00:07 51°17.405 2°52.338 6.5 12.5 358 10.2
2005-08-23 07:00:11 51°17.419 2°52.337 6.1 12.5 358 10.6
2005-08-23 07:00:18 51°17.443 2°52.335 6.5 12.5 358 10.4
2005-08-23 07:00:23 51°17.459 2°52.333 6.1 12.5 358 10.4
2005-08-23 07:00:28 51°17.476 2°52.333 5.7 12.5 357 10.5
2005-08-23 07:00:32 51°17.492 2°52.332 6.1 12.4 359 10.3
2005-08-23 07:00:38 51°17.511 2°52.331 6.2 12.5 357 10.4
2005-08-23 07:00:43 51°17.529 2°52.33 6.6 12.5 357 10.3
2005-08-23 07:00:48 51°17.545 2°52.33 7.1 12.4 358 10.4
2005-08-23 07:00:53 51°17.563 2°52.33 7.6 12.3 1 10.3
2005-08-23 07:00:56 51°17.574 2°52.33 7.9 12.3 359 10.3
2005-08-23 07:01:02 51°17.595 2°52.33 8.6 12.4 -999 10.4
2005-08-23 07:01:07 51°17.612 2°52.33 8.4 12.4 -999 10.3
2005-08-23 07:01:13 51°17.631 2°52.33 8.8 12.4 -999 10.3
2005-08-23 07:01:18 51°17.65 2°52.332 9.4 12.4 2 10.3
2005-08-23 07:01:22 51°17.664 2°52.332 9.9 12.4 2 10.3
2005-08-23 07:01:27 51°17.681 2°52.334 10.6 12.4 3 10.3
2005-08-23 07:01:31 51°17.694 2°52.334 11 12.5 2 10.3
2005-08-23 07:01:38 51°17.718 2°52.338 11.9 12.5 2 10.3
2005-08-23 07:01:43 51°17.734 2°52.341 13.2 12.3 6 10.2
2005-08-23 07:01:47 51°17.747 2°52.344 13.9 12.4 6 10.3
2005-08-23 07:01:53 51°17.767 2°52.349 15.9 12.4 6 10.3
2005-08-23 07:01:58 51°17.783 2°52.353 16.7 12.4 6 10.4
2005-08-23 07:02:03 51°17.8 2°52.359 17.4 12.2 11 10.2
2005-08-23 07:02:08 51°17.817 2°52.364 18.7 12.3 11 10.3
2005-08-23 07:02:12 51°17.83 2°52.369 18.5 12.3 11 10.2
2005-08-23 07:02:16 51°17.844 2°52.374 19.9 12.2 14 10.3
2005-08-23 07:02:23 51°17.866 2°52.383 21.6 12.3 14 10.4
2005-08-23 07:02:27 51°17.881 2°52.39 23.1 12.3 16 10.3
2005-08-23 07:02:32 51°17.897 2°52.397 23.9 12.3 16 10.3
2005-08-23 07:02:37 51°17.913 2°52.406 24.7 12.2 17 10.5
2005-08-23 07:02:43 51°17.931 2°52.414 25.6 12.2 17 10.6
2005-08-23 07:02:48 51°17.947 2°52.424 25.4 12.2 19 10.4
2005-08-23 07:02:53 51°17.962 2°52.435 27.5 12.2 21 10.3
2005-08-23 07:02:58 51°17.979 2°52.447 29.7 12.2 21 10.4
2005-08-23 07:03:03 51°17.993 2°52.457 31.7 12.2 21 10.7
2005-08-23 07:03:07 51°18.004 2°52.466 32.3 12.1 25 10.4
2005-08-23 07:03:12 51°18.021 2°52.48 34 12 27 10.4
2005-08-23 07:03:17 51°18.036 2°52.493 34.4 12.1 27 10.5
2005-08-23 07:03:23 51°18.052 2°52.507 34.8 12.1 28 10.5
2005-08-23 07:03:28 51°18.067 2°52.521 36.2 12 29 10.6
2005-08-23 07:03:32 51°18.077 2°52.533 38 12 29 10.3
2005-08-23 07:03:37 51°18.092 2°52.55 40.4 11.9 34 10.5
2005-08-23 07:03:43 51°18.107 2°52.567 41.4 11.9 36 10.5
2005-08-23 07:03:48 51°18.121 2°52.583 42.7 11.9 36 10.6
2005-08-23 07:03:52 51°18.132 2°52.597 43 11.9 36 10.7
2005-08-23 07:03:58 51°18.148 2°52.617 43.8 11.8 38 10.4
2005-08-23 07:04:02 51°18.159 2°52.63 43.8 11.7 37 10.3
2005-08-23 07:04:07 51°18.171 2°52.646 44 11.7 39 -999
2005-08-23 07:04:12 51°18.184 2°52.663 44.2 11.8 38 10.2
2005-08-23 07:04:18 51°18.198 2°52.682 44.6 11.8 40 10.6
2005-08-23 07:04:23 51°18.21 2°52.7 45.1 11.9 39 10.7
2005-08-23 07:04:28 51°18.221 2°52.719 48.8 11.9 48 11
2005-08-23 07:04:33 51°18.232 2°52.739 51.9 11.9 48 11.1
2005-08-23 07:04:38 51°18.243 2°52.762 54.4 11.9 48 11
2005-08-23 07:04:43 51°18.251 2°52.782 56.9 11.8 52 10.8
2005-08-23 07:04:48 51°18.261 2°52.803 58.5 11.9 53 10.8
2005-08-23 07:04:52 51°18.268 2°52.823 59.3 12 55 10.3
2005-08-23 07:04:57 51°18.278 2°52.844 60.3 12 59 10.3
2005-08-23 07:05:03 51°18.288 2°52.867 60.9 11.8 57 10.3
2005-08-23 07:05:08 51°18.299 2°52.889 59.7 11.9 54 10.5
2005-08-23 07:05:13 51°18.309 2°52.911 59.3 12 55 10.7
2005-08-23 07:05:18 51°18.318 2°52.934 59.1 12 55 11.1
2005-08-23 07:05:23 51°18.327 2°52.955 59.6 12 55 11.3
2005-08-23 07:05:27 51°18.333 2°52.976 61.2 12 62 11.4
2005-08-23 07:05:33 51°18.342 2°53.002 65.5 12 63 11.3
2005-08-23 07:05:38 51°18.348 2°53.03 68 12 63 11.4
2005-08-23 07:05:43 51°18.355 2°53.051 70.8 12 63 11.3
2005-08-23 07:05:48 51°18.358 2°53.079 71.1 12.1 73 10.9
2005-08-23 07:05:52 51°18.366 2°53.099 74.5 12.1 73 10.9
2005-08-23 07:05:58 51°18.371 2°53.127 72 12.1 73 10.8
2005-08-23 07:06:03 51°18.378 2°53.151 73.9 12.1 73 10.9
2005-08-23 07:06:07 51°18.383 2°53.175 72.1 12.1 71 11.1
2005-08-23 07:06:11 51°18.387 2°53.195 73.9 12.1 71 11.3
2005-08-23 07:06:18 51°18.395 2°53.229 71.6 12.1 71 11.1
2005-08-23 07:06:23 51°18.402 2°53.251 73.8 12 74 11.1
2005-08-23 07:06:27 51°18.406 2°53.274 73.1 12 74 11.2
2005-08-23 07:06:33 51°18.414 2°53.301 73.3 12.1 70 11
2005-08-23 07:06:38 51°18.42 2°53.328 72.3 12.1 67 11.1
2005-08-23 07:06:43 51°18.425 2°53.351 72.1 12.1 67 11.1
2005-08-23 07:06:47 51°18.432 2°53.373 72.1 12.1 67 11
2005-08-23 07:06:51 51°18.437 2°53.393 71.8 12.1 67 11.2
2005-08-23 07:06:58 51°18.445 2°53.424 70.1 12.2 66 11
2005-08-23 07:07:02 51°18.452 2°53.446 70.7 12.2 69 11.1
2005-08-23 07:07:07 51°18.458 2°53.471 70.1 12 66 11.1
2005-08-23 07:07:13 51°18.467 2°53.498 70.6 12.1 63 11
2005-08-23 07:07:18 51°18.474 2°53.522 69.1 12.1 63 11.1
2005-08-23 07:07:23 51°18.481 2°53.545 68.6 12.1 66 11.1
2005-08-23 07:07:27 51°18.486 2°53.565 68.4 12 64 10.8
2005-08-23 07:07:33 51°18.496 2°53.594 69.6 12 64 10.8
2005-08-23 07:07:38 51°18.504 2°53.619 67.5 11.9 63 10.7
2005-08-23 07:07:42 51°18.509 2°53.639 68.7 11.9 63 10.7
2005-08-23 07:07:47 51°18.517 2°53.663 68.8 12.1 63 10.6
2005-08-23 07:07:51 51°18.522 2°53.682 68 11.9 65 10.7
2005-08-23 07:07:58 51°18.532 2°53.712 68.7 11.8 65 10.8
2005-08-23 07:08:03 51°18.538 2°53.737 68.9 12 66 10.8
2005-08-23 07:08:08 51°18.546 2°53.761 68.9 12 66 10.9
2005-08-23 07:08:13 51°18.552 2°53.786 68.9 11.9 67 11
2005-08-23 07:08:17 51°18.56 2°53.806 69.1 12 60 11.1
2005-08-23 07:08:23 51°18.567 2°53.832 68.3 12 60 11.2
2005-08-23 07:08:28 51°18.575 2°53.856 68 12 60 11.2
2005-08-23 07:08:32 51°18.581 2°53.878 68.8 12 64 11.1
2005-08-23 07:08:38 51°18.59 2°53.906 69.1 12 65 11.1
2005-08-23 07:08:43 51°18.597 2°53.927 67.7 11.9 63 11.1
2005-08-23 07:08:47 51°18.604 2°53.948 68.7 11.9 63 11
2005-08-23 07:08:52 51°18.611 2°53.973 68.1 12.1 63 11.1
2005-08-23 07:08:58 51°18.619 2°54.002 67.8 12.1 64 11
2005-08-23 07:09:03 51°18.626 2°54.022 69.6 12.1 63 11
2005-08-23 07:09:08 51°18.634 2°54.047 67.4 12 63 11
2005-08-23 07:09:12 51°18.639 2°54.066 66.7 12 62 11
2005-08-23 07:09:18 51°18.648 2°54.094 67.8 12 62 11
2005-08-23 07:09:23 51°18.657 2°54.118 68.2 12.2 63 10.9
2005-08-23 07:09:28 51°18.663 2°54.143 66.7 12.1 60 11
2005-08-23 07:09:32 51°18.67 2°54.161 67.6 11.9 63 10.9
2005-08-23 07:09:38 51°18.679 2°54.19 67.4 12.1 62 10.8
2005-08-23 07:09:43 51°18.687 2°54.213 68.1 11.9 62 10.7
2005-08-23 07:09:48 51°18.694 2°54.237 68.3 12 65 10.8
2005-08-23 07:09:53 51°18.701 2°54.261 67.7 12.1 64 10.8
2005-08-23 07:09:56 51°18.707 2°54.277 67.7 12.1 62 10.8
2005-08-23 07:10:02 51°18.716 2°54.306 68.3 12.1 65 11
2005-08-23 07:10:07 51°18.723 2°54.33 68.1 12.1 65 11.1
2005-08-23 07:10:13 51°18.731 2°54.357 69.4 12.1 65 11.1
2005-08-23 07:10:18 51°18.737 2°54.381 68.9 12.1 67 11.1
2005-08-23 07:10:23 51°18.744 2°54.406 69.5 12.1 65 11
2005-08-23 07:10:27 51°18.75 2°54.424 70.6 12.2 67 11
2005-08-23 07:10:31 51°18.756 2°54.444 69.2 12.1 62 10.9
2005-08-23 07:10:36 51°18.764 2°54.471 71.1 12 63 11
2005-08-23 07:10:43 51°18.771 2°54.504 69.2 12 63 10.9
2005-08-23 07:10:47 51°18.779 2°54.524 71.3 12.1 69 11
2005-08-23 07:10:53 51°18.786 2°54.552 70 12 61 11
2005-08-23 07:10:58 51°18.794 2°54.575 70.4 12 66 11
2005-08-23 07:11:03 51°18.799 2°54.599 69.2 12.1 66 11
2005-08-23 07:11:07 51°18.807 2°54.621 69.3 12.1 63 10.8
2005-08-23 07:11:11 51°18.812 2°54.637 69.3 12 66 10.8
2005-08-23 07:11:18 51°18.822 2°54.674 68.7 12 66 10.8
2005-08-23 07:11:23 51°18.828 2°54.695 69.5 12 65 10.8
2005-08-23 07:11:28 51°18.836 2°54.72 70.4 11.9 65 10.9
2005-08-23 07:11:33 51°18.843 2°54.744 69.4 12 67 11
2005-08-23 07:11:38 51°18.85 2°54.771 70 12 67 10.9
2005-08-23 07:11:43 51°18.856 2°54.792 70.4 12 67 10.8
2005-08-23 07:11:48 51°18.863 2°54.817 70.4 12 67 10.8
2005-08-23 07:11:51 51°18.868 2°54.834 70.3 12.1 66 10.8
2005-08-23 07:11:58 51°18.878 2°54.868 69.5 12.1 64 10.9
2005-08-23 07:12:03 51°18.884 2°54.89 70.4 12.2 66 10.9
2005-08-23 07:12:08 51°18.891 2°54.915 70.6 12.2 65 10.9
2005-08-23 07:12:13 51°18.897 2°54.941 70.4 12.1 65 10.9
2005-08-23 07:12:18 51°18.906 2°54.965 71.3 12.2 67 11
2005-08-23 07:12:23 51°18.912 2°54.988 69.5 12 68 11
2005-08-23 07:12:27 51°18.918 2°55.009 70.2 12.1 64 10.9
2005-08-23 07:12:33 51°18.927 2°55.037 70.2 12 64 10.9
2005-08-23 07:12:38 51°18.932 2°55.061 69.3 12 64 11
2005-08-23 07:12:43 51°18.94 2°55.084 71.2 12 64 11.1
2005-08-23 07:12:48 51°18.947 2°55.109 70.2 12 64 10.9
2005-08-23 07:12:51 51°18.952 2°55.126 70.4 12.1 66 10.8
2005-08-23 07:12:58 51°18.963 2°55.159 70.3 12.1 66 11
2005-08-23 07:13:03 51°18.968 2°55.182 68.5 12.1 62 10.9
2005-08-23 07:13:07 51°18.975 2°55.203 70.3 12.1 67 10.9
2005-08-23 07:13:13 51°18.984 2°55.231 69.3 12.2 63 10.9
2005-08-23 07:13:18 51°18.992 2°55.256 69.1 12.1 65 10.9
2005-08-23 07:13:23 51°18.998 2°55.278 69 12.2 63 10.8
2005-08-23 07:13:28 51°19.006 2°55.303 69 12.1 65 10.8
2005-08-23 07:13:31 51°19.01 2°55.32 69.2 12.3 66 11
2005-08-23 07:13:38 51°19.021 2°55.353 68.4 12.3 66 10.8
2005-08-23 07:13:43 51°19.028 2°55.375 69.1 12.1 67 10.6
2005-08-23 07:13:48 51°19.035 2°55.399 68.4 12.1 64 10.4
2005-08-23 07:13:52 51°19.043 2°55.42 68.9 12.1 64 10.6
2005-08-23 07:13:57 51°19.05 2°55.444 67.7 12.2 62 10.8
2005-08-23 07:14:03 51°19.058 2°55.47 68.7 12.1 63 10.8
2005-08-23 07:14:08 51°19.065 2°55.495 69.7 12.2 63 10.8
2005-08-23 07:14:13 51°19.073 2°55.519 69.1 12.2 63 10.9
2005-08-23 07:14:18 51°19.081 2°55.545 68.6 12.2 63 10.9
2005-08-23 07:14:23 51°19.087 2°55.567 69.6 12.2 63 10.8
2005-08-23 07:14:27 51°19.094 2°55.589 69.8 12.2 63 10.8
2005-08-23 07:14:31 51°19.1 2°55.609 70.2 12.2 67 10.8
2005-08-23 07:14:38 51°19.108 2°55.64 69.3 12.1 62 10.8
2005-08-23 07:14:43 51°19.116 2°55.665 70.9 12.2 67 10.6
2005-08-23 07:14:48 51°19.123 2°55.69 69.8 12.1 62 10.6
2005-08-23 07:14:53 51°19.13 2°55.714 70.1 12.2 68 10.5
2005-08-23 07:14:56 51°19.136 2°55.73 69.3 12.1 62 10.4
2005-08-23 07:15:02 51°19.143 2°55.759 70.1 12.1 67 10.6
2005-08-23 07:15:07 51°19.151 2°55.784 70.7 12.2 64 10.5
2005-08-23 07:15:13 51°19.159 2°55.811 70.7 12.2 64 10.6
2005-08-23 07:15:18 51°19.165 2°55.839 70.2 12.2 68 10.4
2005-08-23 07:15:23 51°19.173 2°55.86 71.6 12.2 68 10.5
2005-08-23 07:15:27 51°19.178 2°55.883 70 12.3 69 10.6
2005-08-23 07:15:31 51°19.185 2°55.901 70.7 12.3 69 10.5
2005-08-23 07:15:38 51°19.194 2°55.936 71.1 12.2 68 10.5
2005-08-23 07:15:43 51°19.201 2°55.957 70.5 12.2 65 10.7
2005-08-23 07:15:48 51°19.208 2°55.983 69.6 12.3 66 10.5
2005-08-23 07:15:52 51°19.214 2°56.001 70.6 12.3 61 10.4
2005-08-23 07:15:58 51°19.223 2°56.034 69.9 12.2 66 10.5
2005-08-23 07:16:03 51°19.23 2°56.058 70.4 12.2 66 10.7
2005-08-23 07:16:08 51°19.236 2°56.08 70.8 12.1 66 10.6
2005-08-23 07:16:12 51°19.242 2°56.103 72.2 12.2 68 10.5
2005-08-23 07:16:18 51°19.25 2°56.13 70.6 12 64 10.2
2005-08-23 07:16:22 51°19.255 2°56.152 71.1 12 68 10.1
2005-08-23 07:16:27 51°19.261 2°56.177 72.6 12.2 67 10
2005-08-23 07:16:33 51°19.269 2°56.205 72.5 12.2 67 10
2005-08-23 07:16:38 51°19.276 2°56.232 71.1 12.1 67 10.1
2005-08-23 07:16:42 51°19.283 2°56.25 72.7 12.1 67 10.3
2005-08-23 07:16:47 51°19.289 2°56.276 69.8 12.2 66 10.4
2005-08-23 07:16:52 51°19.296 2°56.299 71.6 12.2 67 10.5
2005-08-23 07:16:55 51°19.3 2°56.314 70.9 12.2 64 10.7
2005-08-23 07:17:03 51°19.311 2°56.351 69.5 12.2 64 10.7
2005-08-23 07:17:07 51°19.317 2°56.37 71.3 12.2 64 10.5
2005-08-23 07:17:11 51°19.322 2°56.389 71.1 12.2 64 10.3
2005-08-23 07:17:18 51°19.331 2°56.425 72.1 12 69 10.1
2005-08-23 07:17:23 51°19.338 2°56.449 71 12.1 66 10.3
2005-08-23 07:17:27 51°19.343 2°56.472 71.7 12.2 67 10.2
2005-08-23 07:17:32 51°19.349 2°56.495 72 12.2 67 10.2
2005-08-23 07:17:38 51°19.358 2°56.526 72.9 12.1 67 10.4
2005-08-23 07:17:43 51°19.364 2°56.547 71.3 12.1 67 10.6
2005-08-23 07:17:47 51°19.37 2°56.57 70.3 12.1 64 10.2
2005-08-23 07:17:52 51°19.377 2°56.594 71.9 12.1 67 10.5
2005-08-23 07:17:58 51°19.385 2°56.624 70.8 12 65 10.4
2005-08-23 07:18:03 51°19.392 2°56.645 71.2 12.1 67 10.5
2005-08-23 07:18:08 51°19.398 2°56.671 69.1 12 62 10.5
2005-08-23 07:18:12 51°19.404 2°56.69 71.2 12 62 10.5
2005-08-23 07:18:17 51°19.411 2°56.716 71.8 12.2 66 10.5
2005-08-23 07:18:23 51°19.419 2°56.743 70.4 12.1 65 10.6
2005-08-23 07:18:27 51°19.425 2°56.765 71.5 12.1 65 10.4
2005-08-23 07:18:33 51°19.432 2°56.793 71.5 12.1 65 10.3
2005-08-23 07:18:36 51°19.438 2°56.806 70.4 12.1 65 10.2
2005-08-23 07:18:43 51°19.446 2°56.84 71.4 12.1 65 10.4
2005-08-23 07:18:47 51°19.452 2°56.863 70.6 12.2 65 10.2
2005-08-23 07:18:53 51°19.459 2°56.89 72.5 12.4 71 10.2
2005-08-23 07:18:58 51°19.467 2°56.915 70.6 12.4 71 10.1
2005-08-23 07:19:03 51°19.474 2°56.938 70.8 12.1 72 10.2
2005-08-23 07:19:07 51°19.479 2°56.961 70.8 12.1 66 10
2005-08-23 07:19:12 51°19.486 2°56.986 71.5 12.1 65 10.1
2005-08-23 07:19:15 51°19.489 2°57.001 73 12.1 69 10.3
2005-08-23 07:19:23 51°19.5 2°57.037 71.2 12.1 69 10.3
2005-08-23 07:19:27 51°19.504 2°57.058 72.5 12.1 70 10.2
2005-08-23 07:19:33 51°19.513 2°57.087 72.1 12.1 70 10.3
2005-08-23 07:19:38 51°19.52 2°57.112 71.8 12.1 70 10.3
2005-08-23 07:19:43 51°19.527 2°57.136 71.6 12.3 66 10.3
2005-08-23 07:19:48 51°19.533 2°57.162 70.4 12.2 69 10.2
2005-08-23 07:19:52 51°19.541 2°57.183 72 12.3 68 10.2
2005-08-23 07:19:58 51°19.549 2°57.212 69.6 12.3 61 10.4
2005-08-23 07:20:03 51°19.555 2°57.234 69.6 12.1 64 10.3
2005-08-23 07:20:08 51°19.562 2°57.26 71.3 12.1 64 10.1
2005-08-23 07:20:12 51°19.568 2°57.278 70.4 12.2 61 9.9
2005-08-23 07:20:18 51°19.576 2°57.308 71.4 12.2 61 10
2005-08-23 07:20:23 51°19.583 2°57.332 71.1 12.2 61 10.1
2005-08-23 07:20:27 51°19.588 2°57.355 71.1 12.1 68 10.2
2005-08-23 07:20:33 51°19.597 2°57.382 72.2 12.1 66 10.2
2005-08-23 07:20:38 51°19.603 2°57.407 71.1 12.1 66 10.3
2005-08-23 07:20:43 51°19.611 2°57.433 71.8 12.1 66 10.3
2005-08-23 07:20:48 51°19.617 2°57.459 71.6 12.1 63 10.2
2005-08-23 07:20:53 51°19.623 2°57.481 72.6 12.1 63 10.1
2005-08-23 07:20:55 51°19.626 2°57.494 73 12.3 70 10.4
2005-08-23 07:21:03 51°19.636 2°57.531 70.6 12.3 65 10
2005-08-23 07:21:07 51°19.643 2°57.552 73.2 12.3 71 10
2005-08-23 07:21:12 51°19.649 2°57.577 72 12.2 64 10
2005-08-23 07:21:18 51°19.657 2°57.607 72.4 12.2 70 9.9
2005-08-23 07:21:23 51°19.662 2°57.63 72.2 12.2 63 9.8
2005-08-23 07:21:28 51°19.669 2°57.654 72.5 12.2 67 10
2005-08-23 07:21:33 51°19.676 2°57.679 72.5 12 68 10.3
2005-08-23 07:21:38 51°19.683 2°57.706 71.2 12.3 64 10.3
2005-08-23 07:21:43 51°19.689 2°57.728 71.4 12 69 10.3
2005-08-23 07:21:47 51°19.695 2°57.751 72.3 12.1 69 10.3
2005-08-23 07:21:53 51°19.704 2°57.78 73.2 12.2 64 10.2
2005-08-23 07:21:58 51°19.708 2°57.803 71.4 12.2 64 10.1
2005-08-23 07:22:03 51°19.716 2°57.826 73.6 12.2 65 10
2005-08-23 07:22:08 51°19.722 2°57.852 71.6 12.2 65 10.1
2005-08-23 07:22:12 51°19.727 2°57.872 72.6 12.3 70 10.1
2005-08-23 07:22:17 51°19.735 2°57.898 71.5 12 64 10
2005-08-23 07:22:23 51°19.741 2°57.926 73 12 64 10.1
2005-08-23 07:22:27 51°19.748 2°57.948 73.4 12.3 62 9.9
2005-08-23 07:22:33 51°19.755 2°57.976 73 12.3 62 9.9
2005-08-23 07:22:38 51°19.762 2°58.003 71.9 12.3 62 9.9
2005-08-23 07:22:43 51°19.768 2°58.025 73.2 12.2 71 9.9
2005-08-23 07:22:47 51°19.774 2°58.044 72.5 12.2 71 10
2005-08-23 07:22:52 51°19.779 2°58.069 71.8 12.1 66 10
2005-08-23 07:22:57 51°19.788 2°58.095 72.9 12.2 66 10.2
2005-08-23 07:23:03 51°19.794 2°58.123 70.9 12.2 66 10.2
2005-08-23 07:23:07 51°19.801 2°58.145 73.1 12.1 66 9.9
2005-08-23 07:23:13 51°19.807 2°58.173 71.6 12.1 66 9.9
2005-08-23 07:23:17 51°19.814 2°58.194 73.5 12.1 72 10.1
2005-08-23 07:23:23 51°19.82 2°58.221 71.5 12.1 72 9.9
2005-08-23 07:23:27 51°19.827 2°58.243 72.5 12.1 69 9.9
2005-08-23 07:23:33 51°19.833 2°58.27 72.5 12.1 69 10
2005-08-23 07:23:38 51°19.841 2°58.295 73.1 12.1 69 9.9
2005-08-23 07:23:43 51°19.847 2°58.318 71.9 12 65 10
2005-08-23 07:23:47 51°19.852 2°58.339 72.6 12.1 69 9.9
2005-08-23 07:23:51 51°19.858 2°58.362 72.6 12.2 66 10.1
2005-08-23 07:23:58 51°19.866 2°58.393 70 12.1 63 9.9
2005-08-23 07:24:03 51°19.874 2°58.417 74.2 12 68 9.9
2005-08-23 07:24:08 51°19.88 2°58.443 72.8 12 68 10
2005-08-23 07:24:11 51°19.883 2°58.46 72 12 68 9.8
2005-08-23 07:24:18 51°19.893 2°58.494 74.7 12 65 9.7
2005-08-23 07:24:23 51°19.898 2°58.516 72.4 12 67 9.9
2005-08-23 07:24:27 51°19.904 2°58.539 72.6 12.1 68 9.8
2005-08-23 07:24:32 51°19.911 2°58.56 72.5 12.1 68 10
2005-08-23 07:24:38 51°19.919 2°58.592 70.7 11.9 68 9.9
2005-08-23 07:24:42 51°19.924 2°58.611 73.3 11.9 68 10
2005-08-23 07:24:48 51°19.932 2°58.638 71.8 12 65 9.9
2005-08-23 07:24:52 51°19.937 2°58.658 71 12 69 9.8
2005-08-23 07:24:58 51°19.946 2°58.69 71.7 12.1 65 9.4
2005-08-23 07:25:03 51°19.952 2°58.714 72.9 12.1 65 9.6
2005-08-23 07:25:08 51°19.959 2°58.736 71.8 12 67 9.7
2005-08-23 07:25:13 51°19.964 2°58.761 72 12 65 9.7
2005-08-23 07:25:18 51°19.973 2°58.784 73.5 12.1 64 9.8
2005-08-23 07:25:22 51°19.978 2°58.806 71.4 12 67 10
2005-08-23 07:25:27 51°19.984 2°58.83 72.1 12 67 10
2005-08-23 07:25:33 51°19.992 2°58.857 72.9 12 67 10
2005-08-23 07:25:38 51°19.997 2°58.882 71.8 11.9 68 9.7
2005-08-23 07:25:43 51°20.005 2°58.906 74.3 11.9 68 9.6
2005-08-23 07:25:47 51°20.01 2°58.925 71.6 12 65 9.8
2005-08-23 07:25:51 51°20.014 2°58.945 71.5 11.8 67 9.7
2005-08-23 07:25:58 51°20.024 2°58.981 73.3 12 67 9.7
2005-08-23 07:26:02 51°20.029 2°59.002 72.4 12 69 9.8
2005-08-23 07:26:07 51°20.037 2°59.025 72.9 12.1 65 9.8
2005-08-23 07:26:13 51°20.043 2°59.052 70.8 12.1 62 9.9
2005-08-23 07:26:18 51°20.049 2°59.079 72.8 11.9 68 9.8
2005-08-23 07:26:23 51°20.056 2°59.1 74.1 12 69 9.9
2005-08-23 07:26:27 51°20.061 2°59.123 71.1 11.8 63 9.7
2005-08-23 07:26:33 51°20.069 2°59.149 74.2 12 70 10
2005-08-23 07:26:38 51°20.075 2°59.176 72 12 70 9.8
2005-08-23 07:26:43 51°20.081 2°59.198 73.2 11.9 71 10
2005-08-23 07:26:48 51°20.088 2°59.222 72.7 11.9 67 9.9
2005-08-23 07:26:52 51°20.093 2°59.244 72.3 11.8 68 9.8
2005-08-23 07:26:58 51°20.101 2°59.273 72.4 11.8 67 9.8
2005-08-23 07:27:03 51°20.106 2°59.296 73.6 12 69 9.7
2005-08-23 07:27:08 51°20.113 2°59.319 72.9 12 63 9.7
2005-08-23 07:27:13 51°20.119 2°59.345 72 11.8 74 9.5
2005-08-23 07:27:18 51°20.126 2°59.37 72.2 11.8 74 9.4
2005-08-23 07:27:23 51°20.132 2°59.392 71.8 11.9 66 9.4
2005-08-23 07:27:28 51°20.138 2°59.417 71.1 11.8 67 9.4
2005-08-23 07:27:32 51°20.144 2°59.438 72.7 11.9 64 9.4
2005-08-23 07:27:38 51°20.151 2°59.465 72.9 11.9 68 9.6
2005-08-23 07:27:43 51°20.156 2°59.491 71.1 11.9 68 9.6
2005-08-23 07:27:48 51°20.164 2°59.514 71.9 12 69 9.8
2005-08-23 07:27:53 51°20.169 2°59.54 70.2 11.7 65 9.7
2005-08-23 07:27:58 51°20.177 2°59.562 73 12 71 10
2005-08-23 07:28:02 51°20.181 2°59.584 70.3 12 60 9.9
2005-08-23 07:28:08 51°20.189 2°59.609 74.9 11.9 76 9.8
2005-08-23 07:28:13 51°20.194 2°59.635 71.4 11.9 63 9.6
2005-08-23 07:28:18 51°20.201 2°59.658 72.9 11.8 69 9.8
2005-08-23 07:28:22 51°20.207 2°59.679 73.1 11.8 69 9.9
2005-08-23 07:28:28 51°20.211 2°59.708 70.7 11.8 68 9.4
2005-08-23 07:28:33 51°20.218 2°59.731 74.4 11.8 63 9.4
2005-08-23 07:28:38 51°20.224 2°59.758 73.3 11.6 70 9.3
2005-08-23 07:28:43 51°20.232 2°59.778 72.9 11.6 70 9.3
2005-08-23 07:28:47 51°20.235 2°59.799 70.2 11.9 58 9.7
2005-08-23 07:28:53 51°20.245 2°59.826 71.6 11.8 71 9.7
2005-08-23 07:28:58 51°20.251 2°59.852 70.2 11.7 63 9.7
2005-08-23 07:29:03 51°20.257 2°59.874 71.8 11.6 66 9.6
2005-08-23 07:29:07 51°20.262 2°59.895 72.4 11.8 67 9.7
2005-08-23 07:29:12 51°20.268 2°59.919 72.4 11.7 69 9.8
2005-08-23 07:29:18 51°20.275 2°59.949 71.9 11.7 67 9.4
2005-08-23 07:29:23 51°20.281 2°59.97 73.3 11.7 70 9.2
2005-08-23 07:29:28 51°20.287 2°59.995 72.2 11.7 70 9.2
2005-08-23 07:29:32 51°20.294 3°0.015 71.8 11.8 62 9.3
2005-08-23 07:29:38 51°20.299 3°0.042 71.9 11.8 62 9.5
2005-08-23 07:29:43 51°20.306 3°0.066 72.5 11.8 62 9.4
2005-08-23 07:29:48 51°20.314 3°0.09 72.5 11.9 70 9.6
2005-08-23 07:29:52 51°20.318 3°0.109 71.1 11.8 66 9.7
2005-08-23 07:29:58 51°20.326 3°0.138 72.8 11.7 68 9.4
2005-08-23 07:30:03 51°20.333 3°0.16 71.1 11.7 64 9.5
2005-08-23 07:30:07 51°20.337 3°0.182 71.8 11.8 72 9.7
2005-08-23 07:30:13 51°20.347 3°0.208 71.9 11.8 72 9.6
2005-08-23 07:30:18 51°20.352 3°0.232 70.5 11.6 72 9.5
2005-08-23 07:30:23 51°20.359 3°0.254 72.1 11.6 64 9.6
2005-08-23 07:30:28 51°20.364 3°0.28 71.4 11.7 64 9.4
2005-08-23 07:30:32 51°20.371 3°0.299 72.5 11.7 70 9.6
2005-08-23 07:30:35 51°20.374 3°0.314 71.8 11.5 71 9.6
2005-08-23 07:30:42 51°20.382 3°0.347 72.5 11.6 67 9.5
2005-08-23 07:30:48 51°20.389 3°0.373 74.4 11.7 68 9.6
2005-08-23 07:30:52 51°20.395 3°0.394 71.8 11.7 68 9.5
2005-08-23 07:30:58 51°20.402 3°0.42 72.8 11.5 67 9.7
2005-08-23 07:31:03 51°20.407 3°0.444 71.8 11.6 64 9.5
2005-08-23 07:31:07 51°20.414 3°0.465 73.2 11.6 64 9.7
2005-08-23 07:31:12 51°20.419 3°0.489 69.8 11.6 59 9.6
2005-08-23 07:31:17 51°20.427 3°0.512 73.7 11.6 73 9.6
2005-08-23 07:31:23 51°20.432 3°0.539 70 11.6 73 9.6
2005-08-23 07:31:27 51°20.438 3°0.557 73.7 11.6 69 9.6
2005-08-23 07:31:32 51°20.445 3°0.582 72.4 11.6 69 9.5
2005-08-23 07:31:38 51°20.452 3°0.611 73.1 11.6 72 9.6
2005-08-23 07:31:43 51°20.457 3°0.632 72.8 11.6 72 9.4
2005-08-23 07:31:47 51°20.463 3°0.654 73.4 11.6 68 9.2
2005-08-23 07:31:53 51°20.47 3°0.68 72.5 11.4 67 9.3
2005-08-23 07:31:58 51°20.475 3°0.703 71.6 11.4 67 9.4
2005-08-23 07:32:03 51°20.481 3°0.727 73.3 11.6 68 9.3
2005-08-23 07:32:07 51°20.487 3°0.748 72.9 11.5 67 9.5
2005-08-23 07:32:12 51°20.492 3°0.773 72.8 11.5 68 9.4
2005-08-23 07:32:15 51°20.496 3°0.787 74.5 11.6 64 9.5
2005-08-23 07:32:22 51°20.505 3°0.819 70.4 11.6 64 9.5
2005-08-23 07:32:27 51°20.51 3°0.84 73.6 11.7 69 9.5
2005-08-23 07:32:33 51°20.519 3°0.868 73.3 11.7 69 9.7
2005-08-23 07:32:38 51°20.523 3°0.892 71.2 11.7 69 9.7
2005-08-23 07:32:43 51°20.531 3°0.915 73.7 11.6 63 9.6
2005-08-23 07:32:48 51°20.536 3°0.94 70.6 11.5 70 9.7
2005-08-23 07:32:52 51°20.543 3°0.96 72.1 11.7 70 9.6
2005-08-23 07:32:58 51°20.549 3°0.989 70.3 11.7 63 9.5
2005-08-23 07:33:03 51°20.557 3°1.008 72.2 11.5 71 9.5
2005-08-23 07:33:07 51°20.561 3°1.031 70 11.5 71 9.3
2005-08-23 07:33:13 51°20.569 3°1.055 72.1 11.6 64 9.5
2005-08-23 07:33:18 51°20.575 3°1.081 71.2 11.6 64 9.5
2005-08-23 07:33:23 51°20.58 3°1.102 71.4 11.5 67 9.4
2005-08-23 07:33:27 51°20.586 3°1.124 73.3 11.6 68 9.4
2005-08-23 07:33:33 51°20.593 3°1.151 73.1 11.5 69 9.5
2005-08-23 07:33:38 51°20.599 3°1.176 72.8 11.5 69 9.6
2005-08-23 07:33:43 51°20.605 3°1.196 71.9 11.4 65 9.5
2005-08-23 07:33:48 51°20.61 3°1.221 71.1 11.4 63 9.6
2005-08-23 07:33:52 51°20.617 3°1.241 74.6 11.5 74 9.8
2005-08-23 07:33:57 51°20.622 3°1.265 72.3 11.7 62 9.8
2005-08-23 07:34:03 51°20.628 3°1.291 72 11.4 68 9.5
2005-08-23 07:34:08 51°20.635 3°1.314 74.1 11.4 66 9.5
2005-08-23 07:34:12 51°20.64 3°1.334 71.9 11.6 68 9.6
2005-08-23 07:34:18 51°20.647 3°1.361 72.3 11.6 68 9.5
2005-08-23 07:34:23 51°20.653 3°1.387 71.7 11.6 68 9.6
2005-08-23 07:34:27 51°20.659 3°1.406 72.7 11.5 70 9.6
2005-08-23 07:34:32 51°20.666 3°1.429 71.1 11.6 61 9.4
2005-08-23 07:34:35 51°20.668 3°1.444 72.7 11.5 71 9.4
2005-08-23 07:34:43 51°20.678 3°1.479 71.1 11.5 71 9.5
2005-08-23 07:34:48 51°20.686 3°1.504 73.3 11.5 71 9.6
2005-08-23 07:34:52 51°20.691 3°1.52 70.4 11.5 71 9.6
2005-08-23 07:34:58 51°20.698 3°1.551 72 11.6 74 9.7
2005-08-23 07:35:03 51°20.703 3°1.573 71.8 11.6 74 9.7
2005-08-23 07:35:08 51°20.71 3°1.596 73.5 11.7 70 9.8
2005-08-23 07:35:13 51°20.715 3°1.62 71.4 11.6 63 9.7
2005-08-23 07:35:18 51°20.722 3°1.645 72.7 11.4 66 9.6
2005-08-23 07:35:23 51°20.728 3°1.666 73.8 11.5 65 9.7
2005-08-23 07:35:27 51°20.733 3°1.687 71.8 11.6 70 9.7
2005-08-23 07:35:33 51°20.739 3°1.714 72.6 11.6 66 9.6
2005-08-23 07:35:38 51°20.746 3°1.74 72.8 11.4 68 9.6
2005-08-23 07:35:43 51°20.752 3°1.761 73.1 11.4 68 9.6
2005-08-23 07:35:47 51°20.757 3°1.782 73.2 11.6 68 9.6
2005-08-23 07:35:53 51°20.765 3°1.809 72.2 11.5 67 9.6
2005-08-23 07:35:58 51°20.77 3°1.831 72.1 11.5 67 9.6
2005-08-23 07:36:03 51°20.777 3°1.854 72.6 11.5 70 9.7
2005-08-23 07:36:07 51°20.782 3°1.875 71.6 11.6 68 9.6
2005-08-23 07:36:12 51°20.788 3°1.899 71.8 11.5 66 9.5
2005-08-23 07:36:15 51°20.792 3°1.914 72.7 11.4 69 9.6
2005-08-23 07:36:23 51°20.8 3°1.948 71.9 11.4 69 9.4
2005-08-23 07:36:27 51°20.806 3°1.967 72.5 11.4 69 9.4
2005-08-23 07:36:32 51°20.812 3°1.991 73.2 11.6 70 9.6
2005-08-23 07:36:37 51°20.818 3°2.016 71.1 11.4 63 9.5
2005-08-23 07:36:43 51°20.823 3°2.043 72.5 11.4 63 9.3
2005-08-23 07:36:47 51°20.831 3°2.062 73 11.5 61 9.4
2005-08-23 07:36:51 51°20.835 3°2.082 69.8 11.5 63 9.5
2005-08-23 07:36:58 51°20.844 3°2.111 72.8 11.4 72 9.6
2005-08-23 07:37:03 51°20.85 3°2.134 71.8 11.5 70 9.8
2005-08-23 07:37:07 51°20.855 3°2.152 71.1 11.2 64 9.6
2005-08-23 07:37:13 51°20.862 3°2.181 71.7 11.2 64 9.6
2005-08-23 07:37:18 51°20.868 3°2.204 72.1 11.2 64 9.6
2005-08-23 07:37:23 51°20.874 3°2.228 72.4 11.2 64 9.7
2005-08-23 07:37:27 51°20.88 3°2.246 71.7 11.4 69 9.7
2005-08-23 07:37:33 51°20.887 3°2.275 70.3 11.4 69 9.6
2005-08-23 07:37:38 51°20.893 3°2.296 73.3 11.4 69 9.7
2005-08-23 07:37:43 51°20.899 3°2.319 71.9 11.4 69 9.7
2005-08-23 07:37:47 51°20.904 3°2.34 71.1 11.4 71 9.7
2005-08-23 07:37:53 51°20.913 3°2.366 72.4 11.3 61 9.7
2005-08-23 07:37:58 51°20.918 3°2.39 70.8 11.3 61 10
2005-08-23 07:38:03 51°20.924 3°2.411 72 11.3 66 9.9
2005-08-23 07:38:07 51°20.929 3°2.43 72.7 11.3 68 9.9
2005-08-23 07:38:11 51°20.933 3°2.449 71.6 11.3 65 9.9
2005-08-23 07:38:18 51°20.942 3°2.483 72.3 11.2 67 9.9
2005-08-23 07:38:23 51°20.947 3°2.504 72.5 11.2 67 9.8
2005-08-23 07:38:27 51°20.952 3°2.525 73 11.2 67 9.7
2005-08-23 07:38:32 51°20.957 3°2.549 73.5 11.3 71 9.7
2005-08-23 07:38:37 51°20.964 3°2.571 72.5 11.4 64 9.8
2005-08-23 07:38:43 51°20.97 3°2.597 73.4 11.3 75 9.9
2005-08-23 07:38:48 51°20.976 3°2.621 71.6 11.3 63 9.8
2005-08-23 07:38:52 51°20.981 3°2.641 73.3 11.3 63 10
2005-08-23 07:38:57 51°20.986 3°2.664 72.3 11.1 68 10
2005-08-23 07:39:03 51°20.994 3°2.689 73 11.4 69 9.8
2005-08-23 07:39:08 51°20.998 3°2.713 71.1 11.1 66 9.9
2005-08-23 07:39:13 51°21.005 3°2.735 72.8 11.1 69 9.7
2005-08-23 07:39:18 51°21.011 3°2.76 71.7 11.2 71 9.7
2005-08-23 07:39:23 51°21.017 3°2.78 72.9 11.2 71 9.7
2005-08-23 07:39:27 51°21.022 3°2.801 72.1 11.2 68 9.7
2005-08-23 07:39:33 51°21.028 3°2.827 71.6 11.1 66 9.8
2005-08-23 07:39:38 51°21.034 3°2.85 72.8 11.1 66 9.8
2005-08-23 07:39:43 51°21.04 3°2.872 71.7 11.1 66 9.8
2005-08-23 07:39:47 51°21.045 3°2.893 73 11.3 71 9.9
2005-08-23 07:39:51 51°21.05 3°2.911 72.5 11.3 71 9.7
2005-08-23 07:39:58 51°21.058 3°2.943 72.5 11.3 71 9.9
2005-08-23 07:40:02 51°21.063 3°2.962 71.8 11.3 71 9.8
2005-08-23 07:40:07 51°21.069 3°2.985 71.9 11.2 67 9.8
2005-08-23 07:40:12 51°21.076 3°3.007 72.1 11.1 66 10
2005-08-23 07:40:18 51°21.082 3°3.034 71.1 11.2 65 10
2005-08-23 07:40:23 51°21.087 3°3.055 71.8 11.1 67 10
2005-08-23 07:40:28 51°21.095 3°3.078 72.9 11.4 72 10
2005-08-23 07:40:33 51°21.098 3°3.102 70.6 11.3 63 9.8
2005-08-23 07:40:38 51°21.106 3°3.126 74 11.1 69 9.9
2005-08-23 07:40:43 51°21.111 3°3.147 72.1 11.1 69 9.9
2005-08-23 07:40:47 51°21.117 3°3.167 71.6 11.2 68 10.1
2005-08-23 07:40:53 51°21.124 3°3.193 72.4 11.1 68 10
2005-08-23 07:40:58 51°21.129 3°3.215 71.8 11.1 68 10
2005-08-23 07:41:03 51°21.134 3°3.239 72.6 11.1 67 9.7
2005-08-23 07:41:07 51°21.14 3°3.259 73.4 11.2 66 9.8
2005-08-23 07:41:12 51°21.145 3°3.282 72 11.1 70 9.8
2005-08-23 07:41:15 51°21.149 3°3.295 72.5 11 68 9.9
2005-08-23 07:41:23 51°21.156 3°3.331 73.2 11 68 9.9
2005-08-23 07:41:27 51°21.163 3°3.348 72.5 11.1 61 9.8
2005-08-23 07:41:33 51°21.168 3°3.376 71.9 11.1 61 9.7
2005-08-23 07:41:38 51°21.175 3°3.398 72.1 11.1 61 9.9
2005-08-23 07:41:43 51°21.18 3°3.424 72.8 11.1 73 9.9
2005-08-23 07:41:48 51°21.186 3°3.443 73.1 11.1 63 10
2005-08-23 07:41:52 51°21.19 3°3.464 71.9 11 66 10.1
2005-08-23 07:41:58 51°21.198 3°3.492 73.3 11 72 10.1
2005-08-23 07:42:03 51°21.203 3°3.513 72.8 11.2 68 10.1
2005-08-23 07:42:07 51°21.207 3°3.533 72.5 11.2 68 10.3
2005-08-23 07:42:13 51°21.214 3°3.558 73 11.1 66 10
2005-08-23 07:42:18 51°21.22 3°3.583 72.5 11.1 66 9.8
2005-08-23 07:42:22 51°21.225 3°3.601 72.8 11.1 66 9.9
2005-08-23 07:42:27 51°21.23 3°3.625 71.8 11.2 70 10
2005-08-23 07:42:32 51°21.237 3°3.646 72.6 11 68 10.3
2005-08-23 07:42:35 51°21.239 3°3.661 71.8 11.3 75 10.1
2005-08-23 07:42:43 51°21.25 3°3.693 73.9 11.3 75 10.1
2005-08-23 07:42:48 51°21.253 3°3.72 69.4 11.3 75 10.1
2005-08-23 07:42:52 51°21.26 3°3.734 73.6 11.3 75 10.1
2005-08-23 07:42:58 51°21.265 3°3.764 70.3 11 62 10.1
2005-08-23 07:43:03 51°21.272 3°3.783 73 11 62 10.2
2005-08-23 07:43:07 51°21.276 3°3.804 71.5 10.9 70 10.1
2005-08-23 07:43:12 51°21.282 3°3.827 72.6 10.9 72 9.9
2005-08-23 07:43:17 51°21.288 3°3.849 72.2 10.9 68 9.9
2005-08-23 07:43:23 51°21.295 3°3.873 72.5 10.9 69 10
2005-08-23 07:43:28 51°21.3 3°3.897 71.6 11.1 70 10.1
2005-08-23 07:43:33 51°21.306 3°3.918 71.8 11 65 10.2
2005-08-23 07:43:38 51°21.312 3°3.944 71.7 11 70 10.1
2005-08-23 07:43:43 51°21.318 3°3.963 71.9 11 70 10.3
2005-08-23 07:43:47 51°21.322 3°3.984 71.9 11.1 70 10.4
2005-08-23 07:43:53 51°21.33 3°4.009 72.7 11 69 10.3
2005-08-23 07:43:58 51°21.335 3°4.031 71.1 11 69 10.4
2005-08-23 07:44:03 51°21.34 3°4.054 73 11.1 71 10.2
2005-08-23 07:44:08 51°21.347 3°4.079 72.8 10.9 65 10
2005-08-23 07:44:12 51°21.349 3°4.096 71.5 10.9 65 9.9
2005-08-23 07:44:18 51°21.358 3°4.123 74.2 10.9 70 10
2005-08-23 07:44:23 51°21.362 3°4.144 71.9 11 72 10.2
2005-08-23 07:44:28 51°21.367 3°4.167 72.5 10.9 73 10
2005-08-23 07:44:33 51°21.374 3°4.19 74 11 72 10.2
2005-08-23 07:44:38 51°21.38 3°4.214 70.6 11.2 63 10.1
2005-08-23 07:44:43 51°21.384 3°4.234 72 11.2 63 10.2
2005-08-23 07:44:47 51°21.389 3°4.252 73.6 10.9 70 10.3
2005-08-23 07:44:53 51°21.396 3°4.28 71.4 11 65 10.2
2005-08-23 07:44:58 51°21.403 3°4.305 71.5 11 67 10.1
2005-08-23 07:45:03 51°21.409 3°4.324 71.3 11.2 66 10.2
2005-08-23 07:45:08 51°21.413 3°4.348 70.5 11 71 10.1
2005-08-23 07:45:13 51°21.42 3°4.371 72.9 11.1 65 10
2005-08-23 07:45:18 51°21.426 3°4.394 72 11 70 10.3
2005-08-23 07:45:23 51°21.431 3°4.415 71.4 10.9 68 10.3
2005-08-23 07:45:28 51°21.437 3°4.438 72.2 11 66 10.1
2005-08-23 07:45:33 51°21.443 3°4.461 72.4 10.9 67 10.2
2005-08-23 07:45:38 51°21.45 3°4.484 72.8 11 67 10.3
2005-08-23 07:45:43 51°21.454 3°4.505 71.9 11 67 10.4
2005-08-23 07:45:47 51°21.458 3°4.522 73.2 10.8 71 10.2
2005-08-23 07:45:51 51°21.463 3°4.541 73.8 10.9 68 10.2
2005-08-23 07:45:58 51°21.47 3°4.575 73.3 10.9 68 10.2
2005-08-23 07:46:03 51°21.476 3°4.595 73.3 10.9 68 10.2
2005-08-23 07:46:07 51°21.48 3°4.614 72.7 11 67 10.2
2005-08-23 07:46:13 51°21.487 3°4.641 74.2 11.1 70 10.3
2005-08-23 07:46:18 51°21.493 3°4.664 73 11.1 66 10.3
2005-08-23 07:46:23 51°21.498 3°4.686 72.5 11 67 10.3
2005-08-23 07:46:28 51°21.504 3°4.708 73.5 11.1 66 10.4
2005-08-23 07:46:33 51°21.51 3°4.731 71.8 11.1 65 10.5
2005-08-23 07:46:38 51°21.517 3°4.755 72.1 11 68 10.5
2005-08-23 07:46:43 51°21.521 3°4.777 71.7 11 67 10.4
2005-08-23 07:46:48 51°21.528 3°4.799 72.6 11 67 10.5
2005-08-23 07:46:53 51°21.534 3°4.821 72.9 11 67 10.4
2005-08-23 07:46:58 51°21.54 3°4.846 72.5 11 69 10.3
2005-08-23 07:47:03 51°21.544 3°4.867 71.1 11 64 10.1
2005-08-23 07:47:07 51°21.549 3°4.884 74.1 11 64 10.2
2005-08-23 07:47:11 51°21.555 3°4.904 72.2 11 65 10.2
2005-08-23 07:47:18 51°21.563 3°4.936 73.1 11 67 10.3
2005-08-23 07:47:23 51°21.568 3°4.957 72.1 11 67 10.3
2005-08-23 07:47:27 51°21.574 3°4.977 72.4 11 67 10.4
2005-08-23 07:47:32 51°21.58 3°4.999 71.6 10.9 63 10.4
2005-08-23 07:47:38 51°21.587 3°5.025 72.1 11.1 68 10.7
2005-08-23 07:47:43 51°21.592 3°5.046 71.1 11.1 65 10.6
2005-08-23 07:47:47 51°21.598 3°5.067 72.1 11 69 10.6
2005-08-23 07:47:52 51°21.604 3°5.089 72.9 11.1 68 10.6
2005-08-23 07:47:56 51°21.609 3°5.107 70.9 11.1 67 10.5
2005-08-23 07:48:03 51°21.617 3°5.136 72.2 11.1 67 10.6
2005-08-23 07:48:07 51°21.621 3°5.155 72.5 11.1 67 10.5
2005-08-23 07:48:11 51°21.627 3°5.175 72.5 11.2 70 10.5
2005-08-23 07:48:16 51°21.632 3°5.198 71.9 11 73 10.5
2005-08-23 07:48:23 51°21.639 3°5.227 72.6 11 73 10.4
2005-08-23 07:48:27 51°21.644 3°5.248 75 11 69 10.3
2005-08-23 07:48:33 51°21.65 3°5.274 72.2 11 69 10.1
2005-08-23 07:48:38 51°21.656 3°5.298 73.9 11 69 10.2
2005-08-23 07:48:43 51°21.661 3°5.319 74.1 11 69 10.3
2005-08-23 07:48:47 51°21.667 3°5.339 73.3 11.1 62 10.4
2005-08-23 07:48:51 51°21.67 3°5.358 72.1 11 72 10.3
2005-08-23 07:48:58 51°21.68 3°5.388 73.8 11 75 10.4
2005-08-23 07:49:03 51°21.683 3°5.41 72.3 11 75 10.5
2005-08-23 07:49:08 51°21.69 3°5.432 74.8 11.1 64 10.6
2005-08-23 07:49:12 51°21.694 3°5.453 74.7 11.1 68 10.6
2005-08-23 07:49:18 51°21.698 3°5.478 74 10.9 71 10.5
2005-08-23 07:49:23 51°21.705 3°5.5 76.9 11 75 10.5
2005-08-23 07:49:28 51°21.71 3°5.526 74 10.9 70 10.5
2005-08-23 07:49:33 51°21.717 3°5.546 74.7 10.9 70 10.5
2005-08-23 07:49:38 51°21.721 3°5.569 73.4 11 69 10.5
2005-08-23 07:49:43 51°21.727 3°5.591 74.5 11 70 10.5
2005-08-23 07:49:48 51°21.732 3°5.615 74.5 11 70 10.6
2005-08-23 07:49:52 51°21.736 3°5.636 75.1 11.1 70 10.4
2005-08-23 07:49:58 51°21.742 3°5.663 76.3 11.1 72 10.4
2005-08-23 07:50:03 51°21.746 3°5.684 76.3 11 74 10.6
2005-08-23 07:50:08 51°21.75 3°5.709 76.8 11 72 10.6
2005-08-23 07:50:13 51°21.757 3°5.731 77.8 11.2 72 10.7
2005-08-23 07:50:18 51°21.759 3°5.758 76.7 11.2 76 10.6
2005-08-23 07:50:23 51°21.765 3°5.779 78.7 11.3 78 10.3
2005-08-23 07:50:27 51°21.767 3°5.8 76.6 11.1 78 10.4
2005-08-23 07:50:33 51°21.773 3°5.826 77.7 11.2 73 10.4
2005-08-23 07:50:38 51°21.778 3°5.85 77.1 11.2 73 10.5
2005-08-23 07:50:43 51°21.783 3°5.873 77.6 11.1 76 10.7
2005-08-23 07:50:48 51°21.786 3°5.897 77.6 11.1 76 10.7
2005-08-23 07:50:51 51°21.79 3°5.913 78.5 11.2 74 10.7
2005-08-23 07:50:58 51°21.794 3°5.947 76.9 11.3 69 10.4
2005-08-23 07:51:03 51°21.798 3°5.969 78.3 11.1 74 10.3
2005-08-23 07:51:07 51°21.8 3°5.99 81.4 11.1 74 10.7
2005-08-23 07:51:13 51°21.807 3°6.017 78.5 11.1 74 10.5
2005-08-23 07:51:18 51°21.809 3°6.04 78.4 11 70 10.6
2005-08-23 07:51:23 51°21.814 3°6.063 80.2 11 74 10.7
2005-08-23 07:51:28 51°21.818 3°6.087 78.1 11 74 10.7
2005-08-23 07:51:33 51°21.822 3°6.11 77.4 10.8 71 10.6
2005-08-23 07:51:37 51°21.826 3°6.13 78.3 11.1 77 10.7
2005-08-23 07:51:42 51°21.832 3°6.152 76.2 11.1 77 10.9
2005-08-23 07:51:48 51°21.836 3°6.179 76.9 10.9 78 10.8
2005-08-23 07:51:52 51°21.841 3°6.199 77.9 11 74 10.7
2005-08-23 07:51:55 51°21.843 3°6.21 74.9 10.6 73 10.8
2005-08-23 07:52:03 51°21.849 3°6.246 76.9 10.6 73 10.8
2005-08-23 07:52:07 51°21.853 3°6.266 77.6 10.6 73 10.8
2005-08-23 07:52:11 51°21.855 3°6.283 76.8 10.7 72 10.8
2005-08-23 07:52:16 51°21.859 3°6.309 79.1 10.8 78 10.7
2005-08-23 07:52:23 51°21.864 3°6.339 78.5 10.9 71 10.7
2005-08-23 07:52:28 51°21.867 3°6.363 78.9 10.8 78 10.7
2005-08-23 07:52:32 51°21.871 3°6.383 79.4 10.8 78 10.7
2005-08-23 07:52:37 51°21.874 3°6.407 79.6 10.8 73 10.8
2005-08-23 07:52:43 51°21.879 3°6.432 79.1 11 78 10.8
2005-08-23 07:52:47 51°21.88 3°6.451 78.3 11 78 10.8
2005-08-23 07:52:53 51°21.883 3°6.48 80.4 11 78 10.6
2005-08-23 07:52:58 51°21.885 3°6.502 83 11 78 10.7
2005-08-23 07:53:03 51°21.887 3°6.528 82.6 10.8 84 10.8
2005-08-23 07:53:08 51°21.888 3°6.551 83.4 10.7 83 10.6
2005-08-23 07:53:12 51°21.891 3°6.571 83.9 10.7 83 10.8
2005-08-23 07:53:18 51°21.893 3°6.599 82.8 10.7 83 10.7
2005-08-23 07:53:23 51°21.894 3°6.621 84.5 10.7 83 10.8
2005-08-23 07:53:27 51°21.895 3°6.64 85.5 10.8 83 10.8
2005-08-23 07:53:33 51°21.897 3°6.671 85.5 10.8 83 10.8
2005-08-23 07:53:38 51°21.898 3°6.694 83.9 10.8 83 11
2005-08-23 07:53:43 51°21.899 3°6.715 84.9 10.5 88 11
2005-08-23 07:53:47 51°21.9 3°6.734 86.3 10.8 83 10.8
2005-08-23 07:53:53 51°21.901 3°6.763 84.3 10.8 84 10.8
2005-08-23 07:53:58 51°21.903 3°6.789 85.6 10.8 87 10.7
2005-08-23 07:54:03 51°21.905 3°6.808 84.4 10.7 83 10.9
2005-08-23 07:54:07 51°21.905 3°6.829 83.4 10.7 83 10.8
2005-08-23 07:54:11 51°21.909 3°6.846 82.3 10.7 83 11
2005-08-23 07:54:18 51°21.911 3°6.88 79.7 10.5 73 10.8
2005-08-23 07:54:23 51°21.917 3°6.901 80 10.7 76 10.8
2005-08-23 07:54:28 51°21.918 3°6.926 75.6 10.7 76 10.6
2005-08-23 07:54:33 51°21.925 3°6.947 77.9 10.6 78 10.8
2005-08-23 07:54:37 51°21.927 3°6.967 74.5 10.3 73 10.6
2005-08-23 07:54:43 51°21.931 3°6.992 77.1 10.7 81 10.7
2005-08-23 07:54:47 51°21.934 3°7.013 76.9 10.7 75 10.7
2005-08-23 07:54:53 51°21.936 3°7.038 78 10.5 81 10.8
2005-08-23 07:54:58 51°21.938 3°7.061 78.4 10.5 81 10.6
2005-08-23 07:55:03 51°21.942 3°7.086 81.2 10.6 80 10.6
2005-08-23 07:55:08 51°21.943 3°7.108 79.5 10.6 80 10.7
2005-08-23 07:55:13 51°21.946 3°7.131 80.2 10.7 83 11
2005-08-23 07:55:17 51°21.948 3°7.152 79.7 10.7 77 11.1
2005-08-23 07:55:23 51°21.951 3°7.18 79.8 10.7 77 11
2005-08-23 07:55:27 51°21.953 3°7.198 80.4 10.6 80 11.2
2005-08-23 07:55:33 51°21.955 3°7.225 79.4 10.6 80 11.1
2005-08-23 07:55:38 51°21.959 3°7.25 79.7 10.6 80 11.1